createdAt,value
2022-09-26T00:05:16.204Z,1.83
2022-09-26T00:16:18.045Z,0.00
2022-09-26T00:27:19.682Z,0.00
2022-09-26T00:38:21.507Z,0.00
2022-09-26T00:49:23.222Z,0.00
2022-09-26T01:00:24.993Z,0.00
2022-09-26T01:07:46.661Z,2.39
2022-09-26T01:18:48.414Z,0.00
2022-09-26T01:29:50.122Z,0.00
2022-09-26T01:40:51.935Z,0.00
2022-09-26T01:51:53.575Z,0.00
2022-09-26T02:02:55.326Z,0.00
2022-09-26T02:13:57.040Z,0.00
2022-09-26T02:24:58.801Z,0.00
2022-09-26T02:36:00.505Z,0.00
2022-09-26T02:47:02.360Z,3.02
2022-09-26T02:50:44.203Z,3.57
2022-09-26T03:01:45.941Z,0.00
2022-09-26T03:09:07.611Z,1.70
2022-09-26T03:20:09.328Z,2.59
2022-09-26T03:27:31.016Z,1.70
2022-09-26T03:31:12.688Z,2.09
2022-09-26T03:34:54.178Z,2.23
2022-09-26T03:38:35.734Z,1.70
2022-09-26T03:42:17.515Z,3.81
2022-09-26T03:45:59.305Z,4.64
2022-09-26T03:53:20.861Z,2.79
2022-09-26T03:57:02.497Z,2.48
2022-09-26T04:04:24.243Z,2.50
2022-09-26T04:08:05.867Z,1.70
2022-09-26T04:19:07.585Z,4.02
2022-09-26T04:22:49.215Z,2.38
2022-09-26T04:33:50.938Z,0.00
2022-09-26T04:37:32.551Z,2.09
2022-09-26T04:41:14.168Z,1.99
2022-09-26T04:44:55.846Z,4.50
2022-09-26T04:48:37.544Z,4.18
2022-09-26T04:52:19.195Z,5.71
2022-09-26T04:56:00.885Z,3.52
2022-09-26T04:59:42.562Z,1.70
2022-09-26T05:10:44.216Z,3.03
2022-09-26T05:14:25.797Z,2.67
2022-09-26T05:25:27.633Z,2.83
2022-09-26T05:29:09.471Z,2.09
2022-09-26T05:32:50.771Z,2.09
2022-09-26T05:43:52.556Z,2.31
2022-09-26T05:47:34.195Z,3.69
2022-09-26T05:51:15.880Z,2.65
2022-09-26T05:54:57.472Z,2.48
2022-09-26T06:02:21.005Z,3.12
2022-09-26T06:06:00.721Z,2.79
2022-09-26T06:09:42.303Z,2.29
2022-09-26T06:20:44.054Z,0.00
2022-09-26T06:31:45.855Z,0.00
2022-09-26T06:42:47.529Z,0.00
2022-09-26T06:50:09.265Z,4.11
2022-09-26T06:53:51.048Z,3.82
2022-09-26T06:57:32.707Z,3.45
2022-09-26T07:01:14.462Z,2.29
2022-09-26T07:12:16.384Z,0.00
2022-09-26T07:23:17.800Z,0.00
2022-09-26T07:34:19.551Z,0.00
2022-09-26T07:45:28.949Z,0.00
2022-09-26T07:56:23.022Z,0.00
2022-09-26T08:07:24.743Z,2.09
2022-09-26T08:11:06.300Z,1.70
2022-09-26T08:22:08.086Z,0.00
2022-09-26T08:33:09.823Z,0.00
2022-09-26T08:44:11.659Z,2.40
2022-09-26T08:55:13.377Z,0.00
2022-09-26T09:06:15.152Z,0.00
2022-09-26T09:17:16.847Z,0.00
2022-09-26T09:28:18.607Z,0.00
2022-09-26T09:39:20.306Z,0.00
2022-09-26T09:50:22.134Z,0.00
2022-09-26T09:57:43.756Z,2.29
2022-09-26T10:08:45.526Z,0.00
2022-09-26T10:19:47.248Z,0.00
2022-09-26T10:30:49.119Z,0.00
2022-09-26T10:41:50.727Z,0.00
2022-09-26T10:52:52.496Z,0.00
2022-09-26T11:03:54.270Z,0.00
2022-09-26T11:07:35.829Z,1.70
2022-09-26T11:11:17.438Z,2.56
2022-09-26T11:14:59.061Z,2.01
2022-09-26T11:18:40.589Z,2.09
2022-09-26T11:22:22.211Z,2.58
2022-09-26T11:26:03.832Z,3.42
2022-09-26T11:33:25.574Z,2.87
2022-09-26T11:37:07.168Z,2.91
2022-09-26T11:40:48.820Z,2.17
2022-09-26T11:44:30.472Z,3.71
2022-09-26T11:48:12.078Z,3.17
2022-09-26T11:51:53.711Z,2.22
2022-09-26T11:59:15.363Z,2.26
2022-09-26T12:02:57.170Z,2.87
2022-09-26T12:06:38.624Z,2.30
2022-09-26T12:17:40.441Z,0.00
2022-09-26T12:28:42.153Z,0.00
2022-09-26T12:39:43.943Z,0.00
2022-09-26T12:50:45.730Z,3.05
2022-09-26T12:54:27.460Z,3.22
2022-09-26T12:58:09.165Z,3.58
2022-09-26T13:01:50.956Z,3.46
2022-09-26T13:09:12.774Z,2.95
2022-09-26T13:12:54.425Z,3.39
2022-09-26T13:23:56.185Z,0.00
2022-09-26T13:34:57.910Z,0.00
2022-09-26T13:38:39.595Z,2.87
2022-09-26T13:42:21.279Z,2.19
2022-09-26T13:53:23.055Z,0.00
2022-09-26T14:04:24.867Z,0.00
2022-09-26T14:11:46.493Z,1.70
2022-09-26T14:15:28.171Z,2.37
2022-09-26T14:26:29.864Z,0.00
2022-09-26T14:37:31.577Z,0.00
2022-09-26T14:48:33.342Z,0.00
2022-09-26T14:59:35.060Z,0.00
2022-09-26T15:06:56.791Z,3.21
2022-09-26T15:10:38.372Z,3.67
2022-09-26T15:18:00.039Z,2.09
2022-09-26T15:29:01.778Z,1.70
2022-09-26T15:36:23.545Z,3.53
2022-09-26T15:40:05.128Z,2.09
2022-09-26T15:51:06.916Z,0.00
2022-09-26T16:02:08.633Z,0.00
2022-09-26T16:09:30.351Z,9.58
2022-09-26T16:13:12.140Z,4.33
2022-09-26T16:24:14.040Z,0.00
2022-09-26T16:35:15.666Z,0.00
2022-09-26T16:46:17.490Z,0.00
2022-09-26T16:57:19.190Z,0.00
2022-09-26T17:08:20.901Z,0.00
2022-09-26T17:19:22.698Z,0.00
2022-09-26T17:30:24.446Z,0.00
2022-09-26T17:41:26.242Z,0.00
2022-09-26T17:48:47.872Z,2.48
2022-09-26T17:59:49.784Z,4.40
2022-09-26T18:03:31.464Z,2.78
2022-09-26T18:14:33.385Z,3.18
2022-09-26T18:18:15.120Z,2.87
2022-09-26T18:21:56.739Z,2.61
2022-09-26T18:32:58.616Z,0.00
2022-09-26T18:44:00.419Z,0.00
2022-09-26T18:55:02.130Z,2.09
2022-09-26T19:06:04.007Z,2.48
2022-09-26T19:13:27.676Z,2.09
2022-09-26T19:17:07.611Z,2.67
2022-09-26T19:20:49.293Z,3.40
2022-09-26T19:28:11.044Z,3.76
2022-09-26T19:31:52.803Z,3.54
2022-09-26T19:35:34.771Z,4.45
2022-09-26T19:39:16.448Z,2.61
2022-09-26T19:42:58.197Z,3.06
2022-09-26T19:46:40.172Z,3.25
2022-09-26T19:50:21.854Z,5.15
2022-09-26T19:54:06.220Z,3.51
2022-09-26T19:57:45.177Z,5.09
2022-09-26T20:01:26.953Z,3.19
2022-09-26T20:05:08.598Z,4.31
2022-09-26T20:08:50.302Z,4.47
2022-09-26T20:12:32.102Z,5.30
2022-09-26T20:16:13.814Z,4.62
2022-09-26T20:19:58.898Z,4.09
2022-09-26T20:23:37.247Z,4.82
2022-09-26T20:27:18.945Z,5.85
2022-09-26T20:31:00.855Z,5.67
2022-09-26T20:34:42.569Z,5.30
2022-09-26T20:38:24.432Z,5.09
2022-09-26T20:42:06.217Z,4.12
2022-09-26T20:45:47.877Z,3.26
2022-09-26T20:49:29.603Z,4.82
2022-09-26T20:53:11.441Z,5.72
2022-09-26T20:56:53.104Z,3.62
2022-09-26T21:00:34.933Z,4.58
2022-09-26T21:04:16.832Z,6.43
2022-09-26T21:07:58.599Z,5.07
2022-09-26T21:11:40.491Z,4.43
2022-09-26T21:15:22.243Z,3.67
2022-09-26T21:19:04.014Z,5.05
2022-09-26T21:22:45.837Z,5.21
2022-09-26T21:26:27.703Z,6.25
2022-09-26T21:30:09.579Z,5.89
2022-09-26T21:33:51.401Z,5.48
2022-09-26T21:37:33.196Z,4.86
2022-09-26T21:41:14.914Z,4.83
2022-09-26T21:44:56.557Z,4.10
2022-09-26T21:48:38.153Z,3.01
2022-09-26T21:52:19.761Z,3.72
2022-09-26T21:56:06.443Z,3.42
2022-09-26T21:59:43.033Z,3.64
2022-09-26T22:03:24.624Z,2.69
2022-09-26T22:14:26.412Z,5.22
2022-09-26T22:18:08.042Z,3.71
2022-09-26T22:29:09.870Z,0.00
2022-09-26T22:40:11.571Z,0.00
2022-09-26T22:51:13.305Z,0.00
2022-09-26T23:02:15.105Z,0.00
2022-09-26T23:13:16.778Z,0.00
2022-09-26T23:24:18.522Z,0.00
2022-09-26T23:35:20.254Z,0.00
2022-09-26T23:42:42.032Z,4.45
2022-09-26T23:46:23.963Z,4.91
2022-09-26T23:50:05.760Z,6.64
2022-09-26T23:53:47.335Z,2.48
